Time;durP1;ratioP1;P1;durP2;ratioP2;P2;SDS_P1;SDS_P2;PMS_P1;PMS_P2;Temp;Humidity;BMP_temperature;BMP_pressure;BME280_temperature;BME280_humidity;BME280_pressure;Samples;Min_cycle;Max_cycle;Signal;HPM_P1;HPM_P2
2023/08/21 00:02:02;;;;;;;1.75;1.08;;;24.00;64.30;;;;;;4885873;28;20036;-21
2023/08/21 00:04:28;;;;;;;2.27;0.83;;;23.90;64.40;;;;;;4941554;28;20028;-20
2023/08/21 00:06:54;;;;;;;1.80;0.90;;;23.90;64.40;;;;;;4937466;28;20028;-21
2023/08/21 00:09:19;;;;;;;2.60;1.03;;;23.90;64.60;;;;;;4895700;28;20320;-21
2023/08/21 00:11:45;;;;;;;2.55;0.88;;;23.80;64.90;;;;;;4888390;28;20083;-20
2023/08/21 00:14:11;;;;;;;2.30;1.13;;;23.80;64.90;;;;;;4962103;28;20032;-21
2023/08/21 00:16:37;;;;;;;1.90;1.00;;;23.80;65.10;;;;;;4892350;28;20272;-21
2023/08/21 00:19:02;;;;;;;1.53;0.90;;;23.70;65.20;;;;;;4879232;28;20550;-21
2023/08/21 00:21:28;;;;;;;2.40;1.10;;;23.70;65.50;;;;;;4950479;28;20611;-21
2023/08/21 00:23:55;;;;;;;2.00;0.90;;;23.70;65.70;;;;;;4897726;29;20040;-20
2023/08/21 00:26:23;;;;;;;3.75;1.10;;;23.70;65.90;;;;;;4884861;28;20028;-20
2023/08/21 00:28:49;;;;;;;2.57;0.90;;;23.60;65.90;;;;;;4974172;28;20411;-21
2023/08/21 00:31:15;;;;;;;1.67;1.02;;;23.70;66.00;;;;;;4895746;29;20467;-20
2023/08/21 00:33:40;;;;;;;1.30;0.90;;;23.50;66.00;;;;;;4892903;28;20032;-21
2023/08/21 00:36:06;;;;;;;1.33;1.00;;;23.50;66.20;;;;;;4923309;28;20589;-21
2023/08/21 00:38:32;;;;;;;1.87;1.00;;;23.50;66.30;;;;;;4895333;28;20461;-21
2023/08/21 00:40:58;;;;;;;2.15;0.88;;;23.50;66.50;;;;;;4904197;28;20036;-21
2023/08/21 00:43:23;;;;;;;2.15;0.82;;;23.50;66.70;;;;;;4948863;28;20505;-21
2023/08/21 00:45:50;;;;;;;1.90;1.00;;;23.60;67.30;;;;;;4901609;29;20202;-20
2023/08/21 00:48:16;;;;;;;2.30;1.08;;;23.40;67.00;;;;;;4889099;29;20469;-20
2023/08/21 00:50:43;;;;;;;2.08;0.90;;;24.70;68.30;;;;;;4881541;28;20147;-21
2023/08/21 00:53:10;;;;;;;2.70;1.10;;;23.40;67.20;;;;;;4892993;28;20051;-21
2023/08/21 00:55:36;;;;;;;2.43;1.00;;;23.40;67.20;;;;;;4962738;28;20241;-21
2023/08/21 00:58:03;;;;;;;1.05;0.70;;;23.40;67.30;;;;;;4893102;28;20099;-20
2023/08/21 01:00:30;;;;;;;3.00;0.93;;;23.30;67.40;;;;;;4959102;28;20230;-21
2023/08/21 01:02:56;;;;;;;2.30;0.85;;;23.30;67.70;;;;;;4900250;29;20040;-21
2023/08/21 01:05:23;;;;;;;2.17;1.10;;;22.80;68.20;;;;;;4943316;23;20544;-18
2023/08/21 01:08:06;;;;;;;1.63;0.80;;;23.20;67.60;;;;;;4992111;28;20402;-21
2023/08/21 01:10:45;;;;;;;1.30;0.70;;;23.20;69.20;;;;;;4977838;28;20041;-21
2023/08/21 01:13:23;;;;;;;1.58;0.93;;;23.10;68.30;;;;;;4987605;28;20030;-21
2023/08/21 01:15:53;;;;;;;1.55;0.85;;;23.00;68.00;;;;;;4989660;28;20105;-19
2023/08/21 01:18:21;;;;;;;1.67;0.90;;;23.00;68.00;;;;;;4999532;28;20118;-20
2023/08/21 01:20:47;;;;;;;1.80;0.87;;;22.90;67.90;;;;;;4965737;28;20141;-20
2023/08/21 01:23:36;;;;;;;1.88;1.00;;;22.80;67.90;;;;;;5000253;28;20026;-20
2023/08/21 01:26:03;;;;;;;2.40;1.08;;;22.80;69.90;;;;;;4971948;28;20104;-21
2023/08/21 01:28:30;;;;;;;1.88;0.95;;;22.70;68.10;;;;;;4987322;28;20058;-20
2023/08/21 01:31:11;;;;;;;1.60;0.98;;;22.70;68.30;;;;;;4995463;28;20326;-21
2023/08/21 01:33:44;;;;;;;2.07;0.93;;;22.60;69.60;;;;;;4995158;28;20117;-20
2023/08/21 01:36:10;;;;;;;1.83;1.00;;;22.50;69.00;;;;;;4970088;28;20114;-21
2023/08/21 01:38:37;;;;;;;1.85;0.90;;;22.50;68.50;;;;;;4997818;28;20121;-20
2023/08/21 01:41:02;;;;;;;2.15;0.90;;;22.50;68.60;;;;;;4963247;28;20061;-20
2023/08/21 01:43:28;;;;;;;1.87;1.00;;;22.40;68.60;;;;;;4997448;28;20065;-21
2023/08/21 01:45:55;;;;;;;1.73;0.90;;;22.40;68.80;;;;;;4985323;28;20064;-22
2023/08/21 01:48:20;;;;;;;1.50;0.80;;;22.30;69.00;;;;;;4977905;28;20231;-22
2023/08/21 01:50:46;;;;;;;2.20;0.90;;;22.30;68.90;;;;;;4960944;28;20038;-21
2023/08/21 01:53:12;;;;;;;1.88;0.98;;;22.20;69.00;;;;;;4997431;28;20028;-20
2023/08/21 01:55:38;;;;;;;1.52;0.90;;;22.40;70.10;;;;;;4988794;28;20458;-21
2023/08/21 01:58:04;;;;;;;1.20;0.80;;;22.20;69.20;;;;;;4981813;28;20033;-20
2023/08/21 02:00:29;;;;;;;2.05;0.90;;;22.20;69.30;;;;;;4984451;28;20252;-21
2023/08/21 02:02:55;;;;;;;1.43;0.87;;;22.10;69.50;;;;;;4998418;28;20096;-21
2023/08/21 02:05:21;;;;;;;1.40;0.98;;;22.00;69.50;;;;;;4949843;28;20128;-20
2023/08/21 02:07:46;;;;;;;1.88;1.00;;;22.00;69.70;;;;;;4998080;28;20033;-22
2023/08/21 02:10:13;;;;;;;1.53;1.00;;;22.00;69.90;;;;;;4987096;28;20283;-20
2023/08/21 02:12:39;;;;;;;2.78;0.98;;;22.00;70.00;;;;;;4997900;28;20022;-19
2023/08/21 02:15:05;;;;;;;3.20;0.93;;;21.90;69.90;;;;;;4984690;28;20091;-21
2023/08/21 02:17:32;;;;;;;1.77;0.80;;;21.80;70.10;;;;;;4993452;28;20204;-20
2023/08/21 02:19:57;;;;;;;1.20;0.73;;;21.80;70.20;;;;;;4997564;28;20029;-19
2023/08/21 02:22:23;;;;;;;1.60;0.90;;;21.80;70.40;;;;;;4968236;28;20393;-23
2023/08/21 02:24:49;;;;;;;1.80;1.03;;;21.80;70.50;;;;;;4996035;28;20564;-20
2023/08/21 02:27:15;;;;;;;3.05;1.00;;;21.70;70.60;;;;;;4985794;28;20087;-22
2023/08/21 02:29:40;;;;;;;1.00;0.83;;;21.70;70.70;;;;;;4968791;28;20761;-20
2023/08/21 02:32:06;;;;;;;2.00;0.90;;;21.70;70.90;;;;;;4978361;28;20038;-22
2023/08/21 02:34:32;;;;;;;1.92;1.00;;;21.70;71.00;;;;;;4996347;28;20034;-21
2023/08/21 02:36:58;;;;;;;1.00;0.90;;;21.70;71.10;;;;;;4988459;28;20553;-20
2023/08/21 02:39:24;;;;;;;2.45;0.90;;;21.60;71.20;;;;;;4977267;28;20104;-21
2023/08/21 02:41:50;;;;;;;2.50;1.10;;;21.70;71.30;;;;;;4989283;28;20029;-20
2023/08/21 02:44:15;;;;;;;2.60;0.98;;;21.60;71.30;;;;;;4993574;28;20064;-19
2023/08/21 02:46:41;;;;;;;1.83;1.10;;;21.60;71.50;;;;;;4985619;28;20518;-23
2023/08/21 02:49:07;;;;;;;1.75;0.90;;;21.50;71.50;;;;;;4993703;28;20057;-21
2023/08/21 02:51:32;;;;;;;1.83;0.90;;;21.50;71.50;;;;;;4973691;28;20038;-21
2023/08/21 02:53:58;;;;;;;1.92;0.98;;;21.50;71.70;;;;;;4959433;28;20742;-20
2023/08/21 02:56:24;;;;;;;2.60;1.00;;;21.60;71.70;;;;;;4987024;28;20322;-23
2023/08/21 02:58:49;;;;;;;2.00;0.85;;;21.50;71.70;;;;;;4983604;28;20027;-20
2023/08/21 03:01:15;;;;;;;1.97;1.07;;;21.50;71.80;;;;;;4983890;28;20037;-19
2023/08/21 03:03:41;;;;;;;2.03;0.98;;;21.50;71.80;;;;;;4997491;28;20053;-20
2023/08/21 03:06:07;;;;;;;2.43;1.00;;;21.40;71.80;;;;;;4991436;28;20526;-19
2023/08/21 03:08:32;;;;;;;1.48;0.88;;;21.40;71.90;;;;;;4968570;28;20204;-20
2023/08/21 03:10:58;;;;;;;1.70;1.00;;;21.30;71.90;;;;;;4971341;28;20014;-21
2023/08/21 03:13:24;;;;;;;2.28;0.90;;;21.30;72.10;;;;;;4987058;28;20223;-20
2023/08/21 03:15:50;;;;;;;1.55;1.10;;;21.30;72.10;;;;;;4998298;28;20746;-19
2023/08/21 03:18:16;;;;;;;1.00;0.80;;;21.20;72.10;;;;;;4981618;28;20018;-20
2023/08/21 03:20:45;;;;;;;1.92;1.00;;;21.20;72.20;;;;;;4983303;28;20076;-20
2023/08/21 03:23:12;;;;;;;2.97;0.73;;;21.20;72.90;;;;;;4973439;28;20667;-19
2023/08/21 03:25:38;;;;;;;2.10;0.90;;;21.10;72.40;;;;;;4968245;28;20023;-20
2023/08/21 03:28:04;;;;;;;1.10;0.87;;;21.10;72.50;;;;;;4984715;28;20387;-21
2023/08/21 03:30:37;;;;;;;2.13;1.02;;;21.10;72.60;;;;;;4993077;28;20046;-21
2023/08/21 03:33:03;;;;;;;1.58;0.90;;;21.00;73.60;;;;;;4984997;28;20088;-21
2023/08/21 03:35:29;;;;;;;1.30;0.90;;;21.00;72.70;;;;;;4980107;28;20120;-19
2023/08/21 03:37:54;;;;;;;1.27;0.90;;;21.00;72.90;;;;;;4986338;28;20030;-20
2023/08/21 03:40:20;;;;;;;1.87;1.00;;;20.90;72.90;;;;;;4975826;28;20026;-22
2023/08/21 03:42:46;;;;;;;2.47;1.20;;;20.90;73.00;;;;;;4962162;28;20383;-21
2023/08/21 03:45:11;;;;;;;1.60;0.90;;;20.90;73.20;;;;;;4994024;28;20102;-20
2023/08/21 03:47:37;;;;;;;1.63;0.80;;;20.80;73.20;;;;;;4992567;28;20303;-20
2023/08/21 03:50:03;;;;;;;1.53;0.90;;;20.80;73.30;;;;;;4959625;28;20491;-20
2023/08/21 03:52:29;;;;;;;2.47;1.00;;;20.80;73.40;;;;;;4994645;28;20276;-19
2023/08/21 03:54:57;;;;;;;1.88;1.00;;;20.80;73.60;;;;;;4968667;28;20732;-21
2023/08/21 03:57:23;;;;;;;2.88;1.10;;;20.80;73.80;;;;;;4987995;28;20501;-21
2023/08/21 03:59:48;;;;;;;2.00;1.07;;;20.70;73.90;;;;;;4969492;28;20023;-21
2023/08/21 04:02:14;;;;;;;1.05;0.80;;;20.80;74.00;;;;;;4996570;28;20021;-20
2023/08/21 04:04:40;;;;;;;1.57;0.97;;;20.70;74.00;;;;;;4981551;28;20215;-20
2023/08/21 04:07:06;;;;;;;1.40;0.90;;;20.70;74.00;;;;;;4970474;28;20553;-21
2023/08/21 04:09:31;;;;;;;1.57;1.00;;;20.70;74.20;;;;;;4977324;28;20065;-19
2023/08/21 04:11:57;;;;;;;2.60;1.10;;;20.70;74.30;;;;;;4969622;28;20137;-20
2023/08/21 04:14:23;;;;;;;1.33;1.10;;;20.70;74.40;;;;;;4986075;28;20527;-23
2023/08/21 04:16:48;;;;;;;1.83;1.10;;;20.70;74.50;;;;;;4991543;28;20033;-21
2023/08/21 04:19:14;;;;;;;1.87;1.00;;;20.60;74.50;;;;;;4999321;28;20382;-21
2023/08/21 04:21:40;;;;;;;1.45;1.05;;;20.60;74.50;;;;;;4968765;28;20159;-20
2023/08/21 04:24:05;;;;;;;2.10;0.90;;;20.60;74.50;;;;;;5001076;28;20034;-21
2023/08/21 04:26:31;;;;;;;1.77;1.10;;;20.60;74.60;;;;;;4975523;28;20037;-20
2023/08/21 04:28:57;;;;;;;1.37;1.00;;;20.60;75.20;;;;;;4992551;28;20030;-22
2023/08/21 04:31:22;;;;;;;2.60;1.40;;;20.50;74.80;;;;;;4992354;28;20501;-20
2023/08/21 04:33:48;;;;;;;2.47;0.97;;;20.50;74.90;;;;;;4997972;28;20551;-21
2023/08/21 04:36:15;;;;;;;0.98;0.88;;;20.50;74.90;;;;;;4972317;28;20052;-22
2023/08/21 04:38:42;;;;;;;1.55;0.90;;;20.50;75.00;;;;;;4978148;28;20069;-20
2023/08/21 04:41:08;;;;;;;1.95;1.00;;;20.50;75.10;;;;;;4989501;28;20101;-18
2023/08/21 04:43:34;;;;;;;1.93;1.03;;;20.40;75.10;;;;;;4959871;28;20058;-19
2023/08/21 04:46:00;;;;;;;1.60;1.10;;;20.30;75.10;;;;;;4968214;28;20215;-18
2023/08/21 04:48:26;;;;;;;1.65;0.90;;;20.40;75.10;;;;;;4982116;28;20049;-18
2023/08/21 04:50:52;;;;;;;2.38;1.02;;;20.30;75.20;;;;;;4973738;28;20449;-19
2023/08/21 04:53:18;;;;;;;1.70;0.90;;;20.30;75.30;;;;;;4993555;28;20053;-17
2023/08/21 04:55:43;;;;;;;1.95;1.10;;;20.30;75.40;;;;;;4995602;28;20084;-19
2023/08/21 04:58:10;;;;;;;1.57;0.90;;;20.20;75.50;;;;;;4948889;28;20592;-21
2023/08/21 05:00:36;;;;;;;2.35;0.93;;;20.20;75.60;;;;;;4990460;28;20120;-18
2023/08/21 05:03:02;;;;;;;1.88;0.90;;;20.20;75.60;;;;;;4965327;28;20714;-18
2023/08/21 05:05:28;;;;;;;2.13;1.10;;;20.20;75.80;;;;;;4974304;28;20054;-19
2023/08/21 05:07:56;;;;;;;1.93;0.90;;;20.10;75.90;;;;;;4973932;28;20513;-18
2023/08/21 05:10:22;;;;;;;2.08;1.15;;;20.10;76.00;;;;;;4994695;28;20025;-20
2023/08/21 05:12:48;;;;;;;2.60;1.20;;;20.10;76.20;;;;;;4977450;28;21388;-18
2023/08/21 05:15:14;;;;;;;2.10;1.05;;;20.10;76.30;;;;;;4961685;28;20610;-21
2023/08/21 05:17:40;;;;;;;2.30;1.00;;;20.10;76.60;;;;;;4991623;28;20109;-19
2023/08/21 05:20:06;;;;;;;3.47;1.10;;;20.10;76.70;;;;;;4981784;28;20095;-19
2023/08/21 05:22:32;;;;;;;2.28;1.00;;;20.10;76.90;;;;;;4984136;28;20200;-17
2023/08/21 05:24:58;;;;;;;2.38;1.00;;;20.10;77.10;;;;;;4985873;28;20084;-16
2023/08/21 05:27:23;;;;;;;2.20;0.93;;;20.10;77.20;;;;;;4990877;28;20034;-17
2023/08/21 05:29:51;;;;;;;2.33;1.05;;;20.20;77.40;;;;;;4978476;28;20032;-18
2023/08/21 05:32:16;;;;;;;2.00;0.93;;;20.20;77.40;;;;;;4981272;28;20033;-18
2023/08/21 05:34:42;;;;;;;1.40;1.10;;;20.20;77.60;;;;;;4996769;28;20022;-17
2023/08/21 05:37:08;;;;;;;1.50;1.00;;;20.20;77.70;;;;;;4995286;28;20081;-19
2023/08/21 05:39:34;;;;;;;1.63;1.10;;;20.30;77.80;;;;;;4957346;28;20125;-18
2023/08/21 05:41:59;;;;;;;1.80;1.00;;;20.30;77.90;;;;;;4987359;28;20109;-17
2023/08/21 05:44:25;;;;;;;2.17;1.07;;;20.30;77.90;;;;;;4973311;28;20824;-18
2023/08/21 05:46:51;;;;;;;1.77;0.93;;;20.30;78.00;;;;;;4988434;28;20030;-19
2023/08/21 05:49:17;;;;;;;1.73;0.90;;;20.40;78.10;;;;;;4993239;28;20064;-19
2023/08/21 05:51:42;;;;;;;2.53;1.00;;;20.40;78.20;;;;;;4975075;28;20026;-20
2023/08/21 05:54:08;;;;;;;2.27;0.90;;;20.40;78.20;;;;;;4965793;28;20030;-21
2023/08/21 05:56:34;;;;;;;1.40;1.10;;;20.50;78.40;;;;;;4976580;28;20030;-22
2023/08/21 05:58:59;;;;;;;1.43;1.07;;;20.50;78.50;;;;;;4978619;28;20105;-22
2023/08/21 06:01:25;;;;;;;2.40;1.30;;;20.50;78.60;;;;;;4964489;28;20715;-20
2023/08/21 06:03:51;;;;;;;2.57;1.20;;;20.60;78.70;;;;;;4989611;28;20136;-20
2023/08/21 06:06:17;;;;;;;2.60;1.30;;;20.60;78.80;;;;;;4993741;28;20037;-20
2023/08/21 06:08:43;;;;;;;1.33;1.10;;;20.70;79.00;;;;;;4972196;28;20374;-20
2023/08/21 06:11:09;;;;;;;2.93;1.20;;;20.70;78.90;;;;;;4984165;28;20033;-23
2023/08/21 06:13:35;;;;;;;2.17;1.20;;;20.80;79.10;;;;;;4980585;28;20299;-23
2023/08/21 06:16:00;;;;;;;3.17;1.20;;;20.80;79.10;;;;;;4996078;28;20030;-20
2023/08/21 06:18:26;;;;;;;3.20;1.10;;;20.90;79.10;;;;;;4965814;28;20028;-20
2023/08/21 06:20:55;;;;;;;2.33;1.23;;;20.90;79.30;;;;;;4995897;28;20103;-20
2023/08/21 06:23:21;;;;;;;1.92;1.10;;;21.00;79.30;;;;;;4985207;28;20530;-20
2023/08/21 06:25:50;;;;;;;2.20;1.03;;;21.00;79.40;;;;;;4986170;28;20018;-21
2023/08/21 06:28:16;;;;;;;2.75;1.00;;;21.10;79.80;;;;;;4971139;28;20597;-21
2023/08/21 06:30:42;;;;;;;4.13;1.20;;;21.10;79.50;;;;;;4999071;28;20066;-21
2023/08/21 06:33:07;;;;;;;1.70;0.93;;;21.20;79.60;;;;;;4967752;28;20145;-20
2023/08/21 06:35:37;;;;;;;1.70;1.20;;;21.30;81.10;;;;;;4991308;28;20277;-21
2023/08/21 06:38:03;;;;;;;2.08;1.20;;;21.30;80.00;;;;;;4966849;28;20014;-21
2023/08/21 06:40:29;;;;;;;3.35;1.25;;;21.40;79.70;;;;;;4988056;28;20032;-21
2023/08/21 06:42:55;;;;;;;1.90;1.10;;;21.40;79.70;;;;;;4984987;28;20017;-19
2023/08/21 06:45:20;;;;;;;1.92;1.20;;;21.50;79.80;;;;;;4978417;28;20521;-20
2023/08/21 06:47:47;;;;;;;3.10;1.40;;;21.50;79.80;;;;;;4978803;28;20040;-20
2023/08/21 06:50:12;;;;;;;1.80;1.27;;;21.60;79.80;;;;;;4985219;28;20045;-21
2023/08/21 06:52:39;;;;;;;2.47;1.30;;;21.70;79.80;;;;;;4974186;28;20551;-20
2023/08/21 06:55:05;;;;;;;2.33;1.20;;;21.70;79.70;;;;;;4943689;28;20030;-23
2023/08/21 06:57:31;;;;;;;2.13;1.10;;;21.80;79.90;;;;;;4962403;28;20111;-21
2023/08/21 06:59:57;;;;;;;3.40;1.40;;;21.90;79.80;;;;;;4946797;28;20720;-21
2023/08/21 07:02:22;;;;;;;2.70;1.50;;;21.90;79.90;;;;;;4982968;28;20499;-17
2023/08/21 07:04:48;;;;;;;2.37;1.20;;;22.00;79.90;;;;;;4969760;28;20051;-19
2023/08/21 07:07:14;;;;;;;2.90;1.40;;;22.10;80.00;;;;;;4994589;28;20018;-17
2023/08/21 07:09:40;;;;;;;2.05;1.30;;;22.20;80.10;;;;;;4972790;28;20842;-19
2023/08/21 07:12:06;;;;;;;3.45;1.42;;;22.30;80.10;;;;;;4982129;28;20037;-17
2023/08/21 07:14:32;;;;;;;3.22;1.40;;;22.40;80.10;;;;;;4973408;28;20117;-17
2023/08/21 07:16:58;;;;;;;4.00;1.37;;;22.40;80.10;;;;;;4975036;28;20102;-17
2023/08/21 07:19:23;;;;;;;3.03;1.50;;;22.50;80.10;;;;;;4979444;28;20033;-17
2023/08/21 07:21:49;;;;;;;3.50;1.30;;;22.60;80.10;;;;;;4988476;28;20037;-19
2023/08/21 07:24:15;;;;;;;2.53;1.20;;;22.70;80.10;;;;;;4966428;28;20030;-17
2023/08/21 07:26:41;;;;;;;3.43;1.40;;;22.80;80.00;;;;;;4966218;28;20072;-19
2023/08/21 07:29:07;;;;;;;3.78;1.50;;;22.90;80.00;;;;;;4981451;28;20037;-18
2023/08/21 07:31:33;;;;;;;3.70;1.50;;;23.00;79.90;;;;;;4995000;28;20087;-19
2023/08/21 07:33:59;;;;;;;3.80;1.33;;;23.00;79.80;;;;;;4994965;28;20631;-18
2023/08/21 07:36:25;;;;;;;2.40;1.20;;;23.20;80.00;;;;;;4967819;28;20685;-17
2023/08/21 07:38:50;;;;;;;2.73;1.20;;;23.20;80.00;;;;;;4994605;28;20033;-19
2023/08/21 07:41:16;;;;;;;2.55;1.10;;;23.30;80.00;;;;;;4983239;28;20048;-17
2023/08/21 07:43:43;;;;;;;3.58;1.20;;;23.50;80.00;;;;;;4959721;28;20030;-17
2023/08/21 07:46:15;;;;;;;2.40;1.10;;;23.60;79.90;;;;;;4978389;28;20021;-19
2023/08/21 07:48:44;;;;;;;1.38;1.05;;;23.70;79.90;;;;;;4992910;28;20293;-17
2023/08/21 07:51:10;;;;;;;4.93;1.27;;;23.80;80.00;;;;;;4946327;28;20038;-18
2023/08/21 07:53:36;;;;;;;3.28;1.30;;;23.90;80.00;;;;;;4987934;28;20034;-19
2023/08/21 07:56:03;;;;;;;3.33;1.23;;;24.00;79.80;;;;;;4998529;28;20014;-17
2023/08/21 07:58:30;;;;;;;2.88;1.27;;;24.10;79.60;;;;;;4977043;28;20843;-20
2023/08/21 08:00:56;;;;;;;3.78;1.35;;;24.20;79.70;;;;;;4983687;28;20278;-17
2023/08/21 08:03:22;;;;;;;2.38;1.10;;;24.40;80.20;;;;;;4995429;28;20032;-19
2023/08/21 08:05:47;;;;;;;2.47;1.27;;;24.40;79.80;;;;;;4986760;28;20030;-18
2023/08/21 08:08:13;;;;;;;4.32;1.00;;;24.50;79.70;;;;;;4979171;28;20483;-17
2023/08/21 08:10:40;;;;;;;2.77;1.23;;;24.60;79.70;;;;;;4976719;28;20424;-17
2023/08/21 08:13:07;;;;;;;6.63;1.27;;;24.70;79.50;;;;;;4955620;28;20114;-18
2023/08/21 08:15:34;;;;;;;2.97;1.25;;;24.80;79.40;;;;;;4983420;28;20497;-20
2023/08/21 08:18:04;;;;;;;2.83;1.30;;;25.00;79.50;;;;;;4995202;28;20105;-19
2023/08/21 08:20:30;;;;;;;2.53;1.10;;;25.10;79.70;;;;;;4994227;28;20040;-19
2023/08/21 08:22:56;;;;;;;3.83;1.10;;;25.30;80.40;;;;;;4965478;28;20610;-17
2023/08/21 08:25:22;;;;;;;2.42;1.00;;;25.50;81.80;;;;;;4999237;28;20497;-18
2023/08/21 08:27:48;;;;;;;2.63;1.20;;;25.90;83.40;;;;;;4948218;28;20370;-18
2023/08/21 08:30:14;;;;;;;3.13;1.00;;;26.30;84.90;;;;;;4990387;28;20052;-17
2023/08/21 08:32:46;;;;;;;3.08;1.30;;;26.90;85.90;;;;;;4977631;28;20521;-18
2023/08/21 08:35:15;;;;;;;2.20;1.20;;;27.40;85.80;;;;;;5015462;23;20060;-22
2023/08/21 08:37:41;;;;;;;3.13;1.35;;;28.10;84.90;;;;;;4870370;28;21936;-22
2023/08/21 08:40:08;;;;;;;5.15;1.27;;;28.60;85.50;;;;;;4957276;28;20020;-22
2023/08/21 08:42:35;;;;;;;1.55;1.10;;;29.20;84.50;;;;;;4967611;28;20136;-21
2023/08/21 08:45:03;;;;;;;3.53;1.35;;;29.80;83.80;;;;;;4922888;28;20740;-22
2023/08/21 08:47:33;;;;;;;3.23;1.40;;;30.40;82.60;;;;;;4887794;28;20064;-24
2023/08/21 08:50:03;;;;;;;3.72;1.48;;;30.90;80.80;;;;;;4895964;28;20024;-21
2023/08/21 08:52:31;;;;;;;3.10;1.58;;;31.40;80.30;;;;;;4894452;28;20032;-20
2023/08/21 08:54:58;;;;;;;2.88;1.90;;;31.90;79.80;;;;;;4934481;28;20024;-22
2023/08/21 08:57:23;;;;;;;3.17;1.55;;;32.40;78.10;;;;;;4900693;28;20035;-21
2023/08/21 08:59:49;;;;;;;3.00;1.83;;;32.80;77.30;;;;;;4966293;28;20041;-21
2023/08/21 09:02:18;;;;;;;2.78;1.48;;;33.10;75.90;;;;;;4953525;28;20036;-20
2023/08/21 09:04:44;;;;;;;3.27;1.77;;;33.40;75.00;;;;;;4896319;28;20035;-21
2023/08/21 09:07:11;;;;;;;2.30;1.25;;;33.70;74.10;;;;;;4955174;28;20032;-22
2023/08/21 09:09:41;;;;;;;3.25;1.30;;;34.10;73.10;;;;;;4885781;28;20521;-19
2023/08/21 09:12:14;;;;;;;2.25;1.58;;;34.40;70.00;;;;;;4901670;29;20056;-22
2023/08/21 09:14:41;;;;;;;2.27;1.40;;;34.60;68.00;;;;;;4966484;28;20075;-21
2023/08/21 09:17:07;;;;;;;2.33;1.52;;;34.80;69.20;;;;;;4984917;28;20420;-22
2023/08/21 09:19:33;;;;;;;3.10;1.45;;;35.10;68.40;;;;;;4895665;28;20032;-19
2023/08/21 09:22:07;;;;;;;3.63;1.45;;;35.30;67.30;;;;;;4961683;28;20059;-22
2023/08/21 09:24:33;;;;;;;2.10;1.60;;;35.50;66.40;;;;;;4962966;28;20039;-22
2023/08/21 09:27:01;;;;;;;5.07;1.57;;;35.80;65.60;;;;;;4885867;28;20094;-22
2023/08/21 09:29:37;;;;;;;1.77;1.38;;;36.00;64.60;;;;;;4922909;28;20692;-22
2023/08/21 09:32:03;;;;;;;2.70;1.83;;;36.20;63.90;;;;;;4895019;28;20041;-22
2023/08/21 09:34:37;;;;;;;2.27;1.70;;;36.50;63.20;;;;;;4974074;28;20443;-22
2023/08/21 09:37:07;;;;;;;2.88;1.70;;;36.70;59.60;;;;;;4948433;28;20083;-22
2023/08/21 09:39:36;;;;;;;2.05;1.63;;;36.90;59.00;;;;;;4980580;28;20052;-22
2023/08/21 09:42:09;;;;;;;2.70;1.90;;;37.00;59.70;;;;;;4923127;28;20497;-22
2023/08/21 09:44:41;;;;;;;1.85;1.70;;;37.20;56.50;;;;;;4894674;28;20490;-23
2023/08/21 09:47:11;;;;;;;2.03;1.40;;;37.50;56.60;;;;;;4893418;28;20466;-22
2023/08/21 09:49:39;;;;;;;2.83;1.90;;;37.70;56.10;;;;;;4890742;28;20044;-22
2023/08/21 09:52:11;;;;;;;1.88;1.33;;;37.80;56.80;;;;;;4970667;28;20050;-23
2023/08/21 09:54:42;;;;;;;2.35;1.75;;;37.90;54.10;;;;;;4900775;28;20457;-23
2023/08/21 09:57:08;;;;;;;2.15;1.90;;;38.00;52.80;;;;;;4947472;28;20533;-23
2023/08/21 09:59:35;;;;;;;2.77;2.07;;;38.00;53.80;;;;;;4882454;28;20274;-22
2023/08/21 10:02:04;;;;;;;3.08;1.60;;;38.00;53.30;;;;;;4894309;29;20047;-22
2023/08/21 10:04:34;;;;;;;2.20;1.58;;;37.90;52.20;;;;;;4899542;28;20036;-23
2023/08/21 10:07:03;;;;;;;2.30;1.80;;;37.70;51.40;;;;;;4890495;28;20470;-23
2023/08/21 10:09:29;;;;;;;1.88;1.63;;;37.60;51.90;;;;;;4956069;28;20266;-22
2023/08/21 10:11:56;;;;;;;1.70;1.40;;;37.50;51.60;;;;;;4900558;29;20046;-22
2023/08/21 10:14:24;;;;;;;3.63;1.40;;;37.40;51.00;;;;;;4874716;28;20632;-22
2023/08/21 10:16:52;;;;;;;1.45;1.35;;;37.30;50.00;;;;;;4943087;28;20051;-22
2023/08/21 10:19:19;;;;;;;1.42;1.33;;;37.10;48.90;;;;;;4900069;28;20509;-22
2023/08/21 10:21:48;;;;;;;1.35;1.25;;;37.10;49.90;;;;;;4886670;28;20036;-22
2023/08/21 10:24:33;;;;;;;2.07;1.30;;;37.00;49.10;;;;;;4956259;28;20055;-22
2023/08/21 10:26:59;;;;;;;1.45;1.10;;;37.00;47.60;;;;;;4958330;28;20724;-22
2023/08/21 10:29:26;;;;;;;2.00;1.30;;;37.10;49.30;;;;;;4954239;28;20036;-22
2023/08/21 10:32:07;;;;;;;1.00;0.90;;;37.20;48.70;;;;;;4883177;28;20710;-22
2023/08/21 10:34:34;;;;;;;1.90;1.70;;;37.10;46.50;;;;;;4897998;28;20433;-22
2023/08/21 10:37:00;;;;;;;1.43;1.33;;;37.10;48.00;;;;;;4968750;28;20604;-22
2023/08/21 10:39:30;;;;;;;1.55;1.30;;;37.10;48.40;;;;;;4900558;28;20028;-25
2023/08/21 10:42:09;;;;;;;1.95;1.60;;;37.00;47.90;;;;;;4971993;28;20322;-25
2023/08/21 10:44:55;;;;;;;2.23;1.67;;;37.00;46.70;;;;;;4951647;28;20059;-22
2023/08/21 10:47:23;;;;;;;2.20;1.63;;;37.20;47.10;;;;;;4966648;28;20043;-22
2023/08/21 10:50:00;;;;;;;1.83;1.42;;;37.30;48.50;;;;;;4896336;29;20683;-22
2023/08/21 10:52:31;;;;;;;2.00;1.73;;;37.40;47.00;;;;;;4957866;28;20082;-22
2023/08/21 10:55:01;;;;;;;2.15;1.40;;;37.60;47.70;;;;;;4893148;28;20861;-22
2023/08/21 10:57:28;;;;;;;1.80;1.40;;;37.70;46.70;;;;;;4944969;28;20620;-22
2023/08/21 10:59:57;;;;;;;1.73;1.50;;;37.70;46.60;;;;;;4878083;28;20393;-22
2023/08/21 11:02:26;;;;;;;1.70;1.40;;;37.80;46.20;;;;;;4886435;28;20050;-22
2023/08/21 11:04:52;;;;;;;1.60;1.50;;;37.80;46.50;;;;;;4897581;29;20658;-22
2023/08/21 11:07:18;;;;;;;2.47;1.70;;;38.00;47.50;;;;;;4937608;28;20091;-22
2023/08/21 11:09:44;;;;;;;1.47;1.37;;;38.20;47.80;;;;;;4861058;28;20753;-22
2023/08/21 11:12:12;;;;;;;2.15;1.50;;;38.50;47.40;;;;;;4954824;28;20032;-22
2023/08/21 11:14:38;;;;;;;2.25;1.80;;;38.80;46.80;;;;;;4882413;28;20040;-22
2023/08/21 11:17:04;;;;;;;2.50;2.00;;;39.10;46.70;;;;;;4879782;28;20603;-22
2023/08/21 11:19:32;;;;;;;2.20;2.00;;;39.30;46.20;;;;;;4891660;28;20043;-22
2023/08/21 11:22:00;;;;;;;2.75;2.10;;;39.60;45.80;;;;;;4895757;29;20277;-22
2023/08/21 11:24:38;;;;;;;2.08;1.88;;;39.80;45.60;;;;;;4891220;28;20378;-22
2023/08/21 11:27:12;;;;;;;2.78;2.30;;;39.90;43.60;;;;;;4888540;28;20325;-22
2023/08/21 11:29:49;;;;;;;2.63;1.93;;;40.10;43.90;;;;;;4934316;28;20513;-22
2023/08/21 11:32:19;;;;;;;2.10;1.90;;;40.30;43.20;;;;;;4958572;28;20036;-22
2023/08/21 11:34:49;;;;;;;2.47;2.20;;;40.30;43.60;;;;;;4896083;28;20099;-22
2023/08/21 11:37:20;;;;;;;3.10;1.90;;;40.30;42.50;;;;;;4882721;28;20733;-22
2023/08/21 11:39:49;;;;;;;2.60;2.20;;;40.40;43.00;;;;;;4891303;28;20118;-22
2023/08/21 11:42:15;;;;;;;2.07;1.83;;;40.60;43.00;;;;;;4967794;28;20847;-20
2023/08/21 11:44:51;;;;;;;2.30;2.10;;;40.70;43.20;;;;;;4899166;28;20090;-22
2023/08/21 11:47:18;;;;;;;3.22;2.13;;;40.80;41.40;;;;;;4875648;28;20032;-22
2023/08/21 11:49:47;;;;;;;2.90;2.17;;;40.80;42.30;;;;;;4885836;28;20040;-22
2023/08/21 11:52:13;;;;;;;3.22;2.38;;;41.00;42.40;;;;;;4976336;28;20028;-22
2023/08/21 11:54:41;;;;;;;2.47;2.27;;;41.00;41.80;;;;;;4970547;28;20032;-22
2023/08/21 11:57:16;;;;;;;4.50;2.00;;;41.20;41.60;;;;;;4957184;28;20598;-22
2023/08/21 11:59:43;;;;;;;2.47;2.28;;;41.30;39.90;;;;;;4891380;28;20028;-22
2023/08/21 12:02:17;;;;;;;2.67;1.85;;;41.40;41.10;;;;;;4884556;28;20034;-22
2023/08/21 12:04:43;;;;;;;3.50;2.05;;;41.50;39.80;;;;;;4892495;28;20032;-22
2023/08/21 12:07:09;;;;;;;2.40;1.87;;;41.40;39.80;;;;;;4890207;28;20036;-22
2023/08/21 12:09:36;;;;;;;3.70;2.00;;;41.20;38.80;;;;;;4892390;28;20032;-22
2023/08/21 12:12:02;;;;;;;2.20;2.00;;;40.90;38.40;;;;;;4951368;28;20044;-22
2023/08/21 12:14:29;;;;;;;2.70;1.90;;;40.60;38.90;;;;;;4950344;28;20111;-22
2023/08/21 12:16:55;;;;;;;3.83;2.30;;;40.40;39.40;;;;;;4883309;28;20485;-22
2023/08/21 12:19:24;;;;;;;1.87;1.77;;;40.30;39.80;;;;;;4958329;28;20029;-22
2023/08/21 12:21:51;;;;;;;3.08;2.30;;;40.40;39.80;;;;;;4902456;28;20488;-22
2023/08/21 12:24:17;;;;;;;2.45;2.10;;;40.50;40.80;;;;;;4950381;28;20046;-22
2023/08/21 12:26:43;;;;;;;2.03;1.80;;;40.70;40.40;;;;;;4931090;28;20056;-22
2023/08/21 12:29:09;;;;;;;2.97;1.97;;;40.80;40.20;;;;;;4973750;28;20039;-22
2023/08/21 12:31:36;;;;;;;2.33;2.00;;;40.90;39.70;;;;;;4904435;28;20094;-22
2023/08/21 12:34:03;;;;;;;4.05;2.08;;;41.00;39.50;;;;;;4949915;28;20032;-22
2023/08/21 12:36:29;;;;;;;2.23;1.73;;;41.00;39.10;;;;;;4963464;28;20037;-22
2023/08/21 12:38:55;;;;;;;2.70;1.98;;;41.00;39.20;;;;;;4898070;28;20028;-22
2023/08/21 12:41:20;;;;;;;3.38;2.05;;;40.90;38.80;;;;;;4953061;28;20158;-22
2023/08/21 12:43:47;;;;;;;1.70;1.60;;;40.70;38.00;;;;;;4903140;28;20020;-22
2023/08/21 12:46:13;;;;;;;2.83;1.92;;;40.50;37.70;;;;;;4885202;28;20544;-22
2023/08/21 12:48:39;;;;;;;2.40;1.75;;;40.00;37.30;;;;;;4923330;28;20040;-22